createdAt,value
2022-10-01T00:02:24.088Z,6.35
2022-10-01T00:04:51.555Z,5.70
2022-10-01T00:07:18.687Z,6.38
2022-10-01T00:09:45.769Z,6.13
2022-10-01T00:12:18.167Z,6.78
2022-10-01T00:14:52.039Z,6.00
2022-10-01T00:17:19.198Z,6.70
2022-10-01T00:19:46.365Z,6.63
2022-10-01T00:22:13.682Z,6.37
2022-10-01T00:24:43.284Z,6.50
2022-10-01T00:27:10.948Z,7.05
2022-10-01T00:29:38.732Z,7.13
2022-10-01T00:32:11.038Z,7.00
2022-10-01T00:34:48.110Z,6.60
2022-10-01T00:40:40.922Z,6.03
2022-10-01T00:43:32.081Z,5.30
2022-10-01T00:46:10.774Z,5.53
2022-10-01T00:48:42.355Z,5.50
2022-10-01T00:51:09.600Z,5.75
2022-10-01T00:53:38.710Z,5.30
2022-10-01T00:59:48.473Z,5.68
2022-10-01T01:02:19.654Z,4.90
2022-10-01T01:04:49.689Z,5.22
2022-10-01T01:07:17.164Z,5.20
2022-10-01T01:09:47.253Z,4.65
2022-10-01T01:12:39.689Z,5.00
2022-10-01T01:19:22.574Z,4.88
2022-10-01T01:29:25.599Z,4.53
2022-10-01T01:39:38.689Z,4.65
2022-10-01T01:45:59.606Z,4.50
2022-10-01T01:52:19.501Z,3.97
2022-10-01T01:58:18.782Z,4.60
2022-10-01T02:01:24.161Z,4.53
2022-10-01T02:03:51.423Z,3.93
2022-10-01T02:06:44.499Z,3.95
2022-10-01T02:19:36.258Z,3.70
2022-10-01T02:25:29.495Z,3.70
2022-10-01T02:31:30.303Z,3.55
2022-10-01T02:37:27.601Z,3.35
2022-10-01T02:40:03.027Z,3.00
2022-10-01T02:42:31.715Z,3.25
2022-10-01T02:51:46.332Z,2.80
2022-10-01T02:54:35.665Z,2.70
2022-10-01T02:57:28.571Z,2.75
2022-10-01T03:00:07.548Z,2.65
2022-10-01T03:02:37.608Z,3.13
2022-10-01T03:05:05.518Z,3.05
2022-10-01T03:07:49.187Z,2.83
2022-10-01T03:10:36.145Z,3.00
2022-10-01T03:13:03.396Z,3.67
2022-10-01T03:15:34.702Z,3.20
2022-10-01T03:18:09.019Z,3.42
2022-10-01T03:20:42.002Z,3.45
2022-10-01T03:32:57.815Z,3.95
2022-10-01T03:39:08.431Z,4.25
2022-10-01T03:41:44.073Z,4.25
2022-10-01T03:44:11.706Z,4.63
2022-10-01T03:46:38.953Z,4.78
2022-10-01T03:52:35.930Z,5.50
2022-10-01T03:55:03.494Z,4.60
2022-10-01T03:57:41.192Z,4.73
2022-10-01T04:00:13.684Z,4.50
2022-10-01T04:03:11.657Z,4.80
2022-10-01T04:05:44.529Z,5.10
2022-10-01T04:08:34.768Z,5.40
2022-10-01T04:11:03.113Z,5.10
2022-10-01T04:16:21.512Z,5.78
2022-10-01T04:18:49.088Z,5.82
2022-10-01T04:21:17.364Z,5.75
2022-10-01T04:23:54.560Z,6.17
2022-10-01T04:26:23.722Z,6.38
2022-10-01T04:28:54.401Z,6.13
2022-10-01T04:31:44.917Z,6.75
2022-10-01T04:35:18.418Z,7.18
2022-10-01T04:38:16.932Z,6.80
2022-10-01T04:41:29.746Z,7.13
2022-10-01T04:44:00.409Z,7.38
2022-10-01T04:46:39.104Z,7.07
2022-10-01T04:49:08.242Z,7.05
2022-10-01T04:51:36.295Z,6.90
2022-10-01T04:54:07.554Z,7.20
2022-10-01T04:56:53.966Z,6.97
2022-10-01T04:59:21.416Z,7.57
2022-10-01T05:01:48.942Z,7.35
2022-10-01T05:04:26.505Z,7.20
2022-10-01T05:07:03.219Z,8.00
2022-10-01T05:09:36.951Z,7.03
2022-10-01T05:12:07.081Z,7.35
2022-10-01T05:14:43.719Z,7.45
2022-10-01T05:17:11.538Z,6.90
2022-10-01T05:19:39.813Z,7.68
2022-10-01T05:22:07.349Z,7.28
2022-10-01T05:24:34.766Z,7.00
2022-10-01T05:27:06.456Z,7.47
2022-10-01T05:29:44.460Z,7.07
2022-10-01T05:32:24.540Z,7.47
2022-10-01T05:34:58.968Z,7.78
2022-10-01T05:37:27.717Z,6.90
2022-10-01T05:39:56.768Z,7.53
2022-10-01T05:42:24.103Z,7.23
2022-10-01T05:53:41.380Z,7.10
2022-10-01T05:56:11.352Z,6.50
2022-10-01T05:58:47.934Z,7.28
2022-10-01T06:01:15.468Z,7.00
2022-10-01T06:03:50.857Z,7.10
2022-10-01T06:06:23.216Z,6.93
2022-10-01T06:08:51.158Z,6.60
2022-10-01T06:11:29.885Z,7.18
2022-10-01T06:14:06.226Z,7.03
2022-10-01T06:16:59.255Z,6.80
2022-10-01T06:19:28.349Z,7.40
2022-10-01T06:21:56.723Z,6.53
2022-10-01T06:27:16.121Z,6.07
2022-10-01T06:29:43.918Z,6.47
2022-10-01T06:32:21.540Z,7.22
2022-10-01T06:34:49.272Z,6.80
2022-10-01T06:37:17.222Z,7.07
2022-10-01T06:39:44.960Z,6.35
2022-10-01T06:42:12.191Z,6.97
2022-10-01T06:44:39.651Z,7.10
2022-10-01T06:47:07.118Z,6.20
2022-10-01T06:49:34.570Z,6.47
2022-10-01T06:55:33.676Z,6.00
2022-10-01T06:58:10.704Z,6.10
2022-10-01T07:00:39.231Z,6.23
2022-10-01T07:03:35.742Z,6.57
2022-10-01T07:06:20.405Z,6.22
2022-10-01T07:08:50.805Z,6.80
2022-10-01T07:11:20.943Z,6.18
2022-10-01T07:13:54.948Z,5.93
2022-10-01T07:16:22.510Z,5.32
2022-10-01T07:18:52.896Z,5.20
2022-10-01T07:21:20.193Z,5.00
2022-10-01T07:23:48.673Z,4.78
2022-10-01T07:26:15.918Z,4.87
2022-10-01T07:28:47.060Z,4.55
2022-10-01T07:31:20.728Z,4.22
2022-10-01T07:33:48.258Z,4.60
2022-10-01T07:36:15.410Z,4.47
2022-10-01T07:38:45.072Z,4.70
2022-10-01T07:41:12.154Z,4.68
2022-10-01T07:43:41.799Z,5.20
2022-10-01T07:46:10.675Z,4.43
2022-10-01T07:48:44.213Z,4.50
2022-10-01T07:51:54.504Z,4.87
2022-10-01T07:54:30.490Z,4.40
2022-10-01T07:56:58.011Z,4.28
2022-10-01T07:59:27.132Z,4.13
2022-10-01T08:01:54.904Z,4.13
2022-10-01T08:04:42.844Z,3.80
2022-10-01T08:07:10.424Z,3.35
2022-10-01T08:09:55.148Z,3.20
2022-10-01T08:12:42.694Z,3.28
2022-10-01T08:15:11.161Z,3.70
2022-10-01T08:17:49.475Z,3.87
2022-10-01T08:20:43.583Z,3.85
2022-10-01T08:26:03.681Z,3.88
2022-10-01T08:28:32.689Z,3.50
2022-10-01T08:33:48.498Z,4.20
2022-10-01T09:21:32.832Z,3.00
2022-10-01T09:27:41.414Z,2.65
2022-10-01T09:33:52.164Z,2.40
2022-10-01T09:42:53.115Z,1.98
2022-10-01T09:45:22.499Z,2.20
2022-10-01T09:51:29.011Z,1.70
2022-10-01T10:04:09.005Z,1.80
2022-10-01T10:10:07.884Z,1.80
2022-10-01T10:12:35.354Z,1.80
2022-10-01T10:15:14.685Z,1.58
2022-10-01T10:17:50.299Z,1.55
2022-10-01T10:20:28.146Z,1.40
2022-10-01T11:01:20.765Z,1.53
2022-10-01T11:03:56.325Z,1.65
2022-10-01T11:06:24.305Z,1.45
2022-10-01T11:08:59.512Z,1.48
2022-10-01T11:11:42.223Z,1.73
2022-10-01T11:14:25.768Z,1.30
2022-10-01T11:17:16.411Z,1.30
2022-10-01T11:19:56.175Z,1.40
2022-10-01T11:22:23.617Z,1.30
2022-10-01T11:25:01.103Z,1.55
2022-10-01T11:27:36.240Z,1.37
2022-10-01T11:30:10.486Z,1.30
2022-10-01T11:32:37.860Z,1.38
2022-10-01T11:35:21.500Z,1.23
2022-10-01T11:38:06.946Z,1.73
2022-10-01T11:40:46.817Z,1.60
2022-10-01T11:43:19.458Z,1.30
2022-10-01T11:45:57.289Z,1.23
2022-10-01T11:48:30.255Z,1.60
2022-10-01T11:51:01.580Z,1.40
2022-10-01T11:53:40.009Z,1.57
2022-10-01T11:56:45.596Z,1.65
2022-10-01T11:59:28.393Z,1.90
2022-10-01T12:01:55.927Z,1.60
2022-10-01T12:04:26.176Z,1.50
2022-10-01T12:07:15.185Z,1.27
2022-10-01T12:09:54.879Z,1.10
2022-10-01T12:12:24.742Z,1.60
2022-10-01T15:41:53.353Z,1.10
2022-10-01T15:44:39.992Z,1.15
2022-10-01T15:47:22.474Z,1.50
2022-10-01T15:50:04.790Z,1.50
2022-10-01T15:52:49.764Z,2.03
2022-10-01T15:55:21.835Z,1.00
2022-10-01T15:58:02.760Z,1.08
2022-10-01T16:00:32.127Z,1.48
2022-10-01T16:02:59.786Z,1.05
2022-10-01T16:05:36.035Z,1.23
2022-10-01T16:08:03.484Z,1.27
2022-10-01T16:10:38.189Z,1.52
2022-10-01T16:13:36.656Z,1.40
2022-10-01T16:16:06.849Z,1.52
2022-10-01T16:18:44.972Z,1.17
2022-10-01T16:24:57.071Z,1.23
2022-10-01T16:31:19.742Z,1.05
2022-10-01T16:33:58.034Z,1.83
2022-10-01T16:36:36.723Z,1.30
2022-10-01T16:39:18.131Z,1.50
2022-10-01T16:42:24.722Z,1.30
2022-10-01T16:44:52.528Z,1.58
2022-10-01T16:47:24.880Z,1.30
2022-10-01T16:52:37.482Z,1.95
2022-10-01T16:55:05.420Z,1.75
2022-10-01T16:57:32.905Z,1.60
2022-10-01T17:00:00.280Z,1.88
2022-10-01T17:02:30.281Z,1.43
2022-10-01T17:05:03.718Z,1.48
2022-10-01T17:07:30.816Z,2.63
2022-10-01T17:09:58.011Z,2.15
2022-10-01T17:12:26.934Z,2.35
2022-10-01T17:15:06.126Z,1.80
2022-10-01T17:17:53.832Z,1.80
2022-10-01T17:20:22.144Z,2.28
2022-10-01T17:22:49.634Z,2.50
2022-10-01T17:25:20.167Z,2.30
2022-10-01T17:27:47.452Z,2.50
2022-10-01T17:30:15.117Z,2.17
2022-10-01T17:32:45.134Z,1.90
2022-10-01T17:35:13.141Z,1.80
2022-10-01T17:37:40.996Z,2.05
2022-10-01T17:40:08.588Z,2.23
2022-10-01T17:42:38.941Z,1.80
2022-10-01T17:45:07.845Z,1.73
2022-10-01T17:47:35.041Z,1.70
2022-10-01T17:50:02.961Z,2.00
2022-10-01T17:52:32.060Z,1.73
2022-10-01T17:54:59.183Z,1.55
2022-10-01T17:57:26.306Z,1.95
2022-10-01T17:59:53.432Z,1.77
2022-10-01T18:02:40.328Z,1.45
2022-10-01T18:05:12.191Z,2.10
2022-10-01T18:07:39.796Z,2.10
2022-10-01T18:10:07.540Z,2.00
2022-10-01T18:12:34.972Z,2.33
2022-10-01T18:15:02.442Z,2.15
2022-10-01T18:17:29.620Z,4.20
2022-10-01T18:19:57.337Z,3.65
2022-10-01T18:22:24.784Z,2.13
2022-10-01T18:24:51.850Z,2.00
2022-10-01T18:27:19.145Z,1.90
2022-10-01T18:29:46.211Z,1.60
2022-10-01T18:32:18.099Z,1.70
2022-10-01T18:34:52.713Z,1.52
2022-10-01T18:37:44.390Z,2.00
2022-10-01T18:40:13.291Z,1.70
2022-10-01T18:42:55.695Z,1.60
2022-10-01T18:45:39.560Z,2.03
2022-10-01T18:48:09.903Z,1.73
2022-10-01T18:50:49.590Z,1.65
2022-10-01T18:53:36.249Z,2.05
2022-10-01T18:56:10.423Z,1.50
2022-10-01T18:58:37.576Z,1.60
2022-10-01T19:01:10.834Z,1.70
2022-10-01T19:04:00.190Z,1.90
2022-10-01T19:06:33.694Z,1.92
2022-10-01T19:09:03.683Z,1.83
2022-10-01T19:11:33.527Z,2.20
2022-10-01T19:14:06.488Z,2.28
2022-10-01T19:16:48.995Z,2.55
2022-10-01T19:19:28.896Z,2.63
2022-10-01T19:22:06.568Z,1.83
2022-10-01T19:24:48.098Z,2.05
2022-10-01T19:27:18.504Z,2.00
2022-10-01T19:29:48.599Z,2.42
2022-10-01T19:32:23.963Z,2.08
2022-10-01T19:35:03.293Z,1.97
2022-10-01T19:37:32.824Z,2.13
2022-10-01T19:40:26.325Z,2.17
2022-10-01T19:43:16.830Z,2.08
2022-10-01T19:46:12.719Z,2.30
2022-10-01T19:49:01.655Z,2.10
2022-10-01T19:51:34.316Z,1.83
2022-10-01T19:54:02.053Z,2.03
2022-10-01T19:56:40.000Z,2.08
2022-10-01T19:59:14.818Z,1.67
2022-10-01T20:01:46.347Z,2.03
2022-10-01T20:04:21.348Z,2.33
2022-10-01T20:06:48.592Z,2.15
2022-10-01T20:09:29.039Z,2.50
2022-10-01T20:12:02.484Z,2.30
2022-10-01T20:14:55.898Z,2.50
2022-10-01T20:17:26.528Z,2.15
2022-10-01T20:20:00.783Z,2.30
2022-10-01T20:22:37.307Z,2.00
2022-10-01T20:25:11.709Z,2.13
2022-10-01T20:27:58.857Z,2.10
2022-10-01T20:30:28.675Z,2.33
2022-10-01T20:33:00.802Z,2.40
2022-10-01T20:35:31.125Z,2.35
2022-10-01T20:38:11.473Z,2.50
2022-10-01T20:40:49.638Z,2.30
2022-10-01T20:43:19.415Z,2.33
2022-10-01T20:45:48.149Z,2.80
2022-10-01T20:48:25.089Z,2.38
2022-10-01T20:51:00.907Z,2.60
2022-10-01T20:53:35.757Z,2.33
2022-10-01T20:56:06.027Z,2.33
2022-10-01T20:58:44.357Z,2.40
2022-10-01T21:01:17.188Z,2.80
2022-10-01T21:03:47.323Z,2.47
2022-10-01T21:06:17.180Z,2.07
2022-10-01T21:08:44.328Z,2.47
2022-10-01T21:11:23.758Z,2.50
2022-10-01T21:14:09.801Z,2.58
2022-10-01T21:16:42.248Z,2.42
2022-10-01T21:19:18.777Z,2.33
2022-10-01T21:21:55.155Z,2.38
2022-10-01T21:24:44.306Z,2.80
2022-10-01T21:27:31.763Z,2.15
2022-10-01T21:30:05.211Z,2.45
2022-10-01T21:32:33.342Z,2.40
2022-10-01T21:35:03.689Z,2.35
2022-10-01T21:37:33.876Z,2.53
2022-10-01T21:40:07.796Z,2.72
2022-10-01T21:42:34.996Z,2.70
2022-10-01T21:45:12.356Z,2.60
2022-10-01T21:47:52.065Z,2.80
2022-10-01T21:50:27.141Z,3.00
2022-10-01T21:52:54.460Z,2.78
2022-10-01T21:55:31.553Z,3.10
2022-10-01T21:58:01.511Z,3.27
2022-10-01T22:00:30.686Z,2.80
2022-10-01T22:03:07.549Z,2.55
2022-10-01T22:05:37.985Z,2.65
2022-10-01T22:08:23.224Z,2.53
2022-10-01T22:10:51.801Z,3.10
2022-10-01T22:13:29.011Z,2.58
2022-10-01T22:15:58.787Z,2.72
2022-10-01T22:18:32.885Z,2.95
2022-10-01T22:21:05.959Z,3.03
2022-10-01T22:23:36.363Z,2.30
2022-10-01T22:26:06.955Z,2.80
2022-10-01T22:28:37.160Z,3.50
2022-10-01T22:31:06.011Z,2.70
2022-10-01T22:33:35.723Z,2.92
2022-10-01T22:36:06.678Z,3.30
2022-10-01T22:38:53.960Z,3.22
2022-10-01T22:41:27.566Z,2.72
2022-10-01T22:43:55.005Z,2.75
2022-10-01T22:46:28.193Z,3.03
2022-10-01T22:49:06.788Z,3.07
2022-10-01T22:51:48.328Z,3.25
2022-10-01T22:54:15.395Z,3.35
2022-10-01T22:56:59.234Z,3.05
2022-10-01T22:59:44.747Z,2.47
2022-10-01T23:02:12.206Z,3.37
2022-10-01T23:04:45.355Z,2.50
2022-10-01T23:07:19.892Z,2.22
2022-10-01T23:09:53.330Z,2.33
2022-10-01T23:12:25.995Z,2.00
2022-10-01T23:14:56.340Z,2.17
2022-10-01T23:17:36.240Z,1.73
2022-10-01T23:20:06.450Z,1.80
2022-10-01T23:22:39.061Z,1.90
2022-10-01T23:25:23.639Z,1.27
2022-10-01T23:28:12.371Z,1.73
2022-10-01T23:30:59.692Z,1.40
2022-10-01T23:33:35.192Z,1.27
2022-10-01T23:36:21.806Z,1.38
2022-10-01T23:39:09.471Z,1.42
2022-10-01T23:41:43.379Z,1.30
2022-10-01T23:44:21.580Z,1.30
2022-10-01T23:46:52.375Z,1.30
2022-10-01T23:49:22.639Z,1.42
2022-10-01T23:51:59.054Z,1.27
2022-10-01T23:54:50.620Z,1.50
2022-10-01T23:57:31.134Z,1.60
